Time;durP1;ratioP1;P1;durP2;ratioP2;P2;SDS_P1;SDS_P2;PMS_P1;PMS_P2;Temp;Humidity;BMP_temperature;BMP_pressure;BME280_temperature;BME280_humidity;BME280_pressure;Samples;Min_cycle;Max_cycle;Signal;HPM_P1;HPM_P2
2023/12/16 00:00:17;;;;;;;3.30;2.70;;;20.40;73.70;;;;;;5066037;28;20645;-58
2023/12/16 00:02:44;;;;;;;3.05;2.42;;;20.40;73.90;;;;;;5066493;28;20202;-60
2023/12/16 00:05:11;;;;;;;2.97;2.25;;;20.40;73.80;;;;;;5064265;28;20215;-59
2023/12/16 00:07:38;;;;;;;3.05;2.30;;;20.40;73.70;;;;;;5063112;28;20218;-60
2023/12/16 00:10:06;;;;;;;2.40;2.10;;;20.40;73.70;;;;;;5070255;28;20186;-59
2023/12/16 00:12:33;;;;;;;2.88;2.13;;;20.40;73.80;;;;;;5069680;28;20287;-60
2023/12/16 00:15:01;;;;;;;5.15;2.58;;;20.40;73.80;;;;;;5062066;28;20202;-58
2023/12/16 00:17:27;;;;;;;3.35;2.30;;;20.40;73.90;;;;;;5071611;28;20203;-58
2023/12/16 00:19:54;;;;;;;1.98;1.77;;;20.40;73.80;;;;;;5062541;28;20203;-60
2023/12/16 00:22:21;;;;;;;3.63;2.72;;;20.40;73.70;;;;;;5073815;28;20201;-57
2023/12/16 00:24:48;;;;;;;2.10;1.90;;;20.40;73.80;;;;;;5073923;28;20316;-59
2023/12/16 00:27:14;;;;;;;3.33;2.88;;;20.40;73.80;;;;;;5066398;28;20213;-57
2023/12/16 00:29:41;;;;;;;2.55;2.33;;;20.40;73.80;;;;;;5067542;28;20202;-59
2023/12/16 00:32:09;;;;;;;2.60;2.10;;;20.40;73.80;;;;;;5061426;28;20200;-58
2023/12/16 00:34:36;;;;;;;2.63;2.13;;;20.40;73.90;;;;;;5066527;28;20201;-59
2023/12/16 00:37:05;;;;;;;2.20;1.95;;;20.40;73.90;;;;;;5057908;28;20221;-59
2023/12/16 00:39:32;;;;;;;3.97;2.45;;;20.40;74.00;;;;;;5068687;28;20184;-59
2023/12/16 00:41:59;;;;;;;2.15;1.80;;;20.30;73.90;;;;;;5064074;28;20217;-59
2023/12/16 00:44:25;;;;;;;2.72;2.40;;;20.40;73.90;;;;;;5062932;28;20209;-61
2023/12/16 00:46:52;;;;;;;2.47;2.15;;;20.40;73.90;;;;;;5064101;28;20253;-60
2023/12/16 00:49:21;;;;;;;4.10;2.78;;;20.40;73.80;;;;;;5058651;28;20205;-61
2023/12/16 00:51:47;;;;;;;2.88;2.58;;;20.40;73.80;;;;;;5061403;28;20320;-59
2023/12/16 00:54:14;;;;;;;2.25;1.85;;;20.40;73.80;;;;;;5063963;28;20194;-61
2023/12/16 00:56:41;;;;;;;3.15;2.10;;;20.40;73.80;;;;;;5062401;28;20204;-61
2023/12/16 00:59:07;;;;;;;1.92;1.50;;;20.40;73.70;;;;;;5063582;28;20194;-59
2023/12/16 01:01:34;;;;;;;5.18;3.60;;;20.30;73.80;;;;;;5063468;28;20654;-61
2023/12/16 01:04:01;;;;;;;2.85;2.30;;;20.30;73.80;;;;;;5062469;28;20214;-61
2023/12/16 01:06:29;;;;;;;2.10;1.90;;;20.30;73.80;;;;;;5066081;28;20221;-61
2023/12/16 01:08:55;;;;;;;2.55;2.35;;;20.30;73.70;;;;;;5064608;28;20869;-61
2023/12/16 01:11:22;;;;;;;2.22;2.03;;;20.30;73.70;;;;;;5061789;28;20205;-59
2023/12/16 01:13:49;;;;;;;2.15;1.85;;;20.30;73.70;;;;;;5062939;28;20552;-60
2023/12/16 01:16:16;;;;;;;1.80;1.70;;;20.30;73.70;;;;;;5062594;28;20198;-60
2023/12/16 01:18:42;;;;;;;2.35;1.77;;;20.30;73.90;;;;;;5064025;28;20211;-60
2023/12/16 01:21:09;;;;;;;2.03;1.73;;;20.30;73.70;;;;;;5062888;28;20194;-61
2023/12/16 01:23:38;;;;;;;2.17;1.98;;;20.30;73.90;;;;;;5061479;28;21144;-61
2023/12/16 01:26:04;;;;;;;2.40;1.80;;;20.30;73.90;;;;;;5066599;28;20236;-59
2023/12/16 01:28:31;;;;;;;2.15;1.95;;;20.30;73.80;;;;;;5067876;28;20891;-56
2023/12/16 01:30:58;;;;;;;2.33;2.13;;;20.30;73.80;;;;;;5067115;28;20189;-61
2023/12/16 01:33:25;;;;;;;3.63;1.67;;;20.30;73.70;;;;;;5069006;28;20268;-62
2023/12/16 01:35:52;;;;;;;1.90;1.70;;;20.30;73.70;;;;;;5069304;28;20282;-55
2023/12/16 01:38:18;;;;;;;3.80;1.75;;;20.30;74.60;;;;;;5066612;28;20201;-61
2023/12/16 01:40:46;;;;;;;1.70;1.60;;;20.30;73.80;;;;;;5070493;28;20213;-61
2023/12/16 01:43:13;;;;;;;2.30;2.10;;;20.30;73.80;;;;;;5068495;28;20198;-61
2023/12/16 01:45:40;;;;;;;2.78;1.95;;;20.30;73.90;;;;;;5069284;28;20552;-60
2023/12/16 01:48:07;;;;;;;1.75;1.50;;;20.30;73.90;;;;;;5069614;28;20222;-57
2023/12/16 01:50:34;;;;;;;1.90;1.70;;;20.30;73.90;;;;;;5068630;28;20205;-58
2023/12/16 01:53:03;;;;;;;3.30;2.20;;;20.30;73.90;;;;;;5072367;28;20199;-60
2023/12/16 01:55:30;;;;;;;1.70;1.60;;;20.30;73.90;;;;;;5065818;28;20194;-61
2023/12/16 01:57:58;;;;;;;2.53;2.33;;;20.20;73.70;;;;;;5068977;28;20669;-57
2023/12/16 02:00:26;;;;;;;2.47;2.03;;;20.20;73.60;;;;;;5069290;28;20205;-59
2023/12/16 02:02:53;;;;;;;2.15;1.70;;;20.30;73.80;;;;;;5066272;28;20198;-58
2023/12/16 02:05:20;;;;;;;2.20;1.95;;;20.20;73.70;;;;;;5067703;28;20209;-60
2023/12/16 02:07:47;;;;;;;1.63;1.52;;;20.20;73.70;;;;;;5069706;28;20221;-61
2023/12/16 02:10:14;;;;;;;2.00;1.75;;;20.20;73.80;;;;;;5072594;28;20209;-62
2023/12/16 02:12:42;;;;;;;2.30;1.85;;;20.20;73.80;;;;;;5069695;28;20194;-60
2023/12/16 02:15:11;;;;;;;2.15;1.70;;;20.30;73.90;;;;;;5066954;28;20197;-56
2023/12/16 02:17:37;;;;;;;2.15;1.58;;;20.20;73.80;;;;;;5071582;28;20665;-61
2023/12/16 02:20:05;;;;;;;1.95;1.70;;;20.20;73.70;;;;;;5068065;28;20201;-59
2023/12/16 02:22:32;;;;;;;1.60;1.50;;;20.20;73.80;;;;;;5070945;28;20190;-58
2023/12/16 02:25:01;;;;;;;2.20;2.00;;;20.20;73.70;;;;;;5068297;28;20191;-62
2023/12/16 02:27:28;;;;;;;2.50;2.30;;;20.20;73.90;;;;;;5066620;28;20222;-59
2023/12/16 02:29:54;;;;;;;2.28;1.50;;;20.20;73.90;;;;;;5067216;28;20195;-60
2023/12/16 02:32:22;;;;;;;1.88;1.73;;;20.20;73.90;;;;;;5067119;28;20193;-57
2023/12/16 02:34:48;;;;;;;2.05;1.40;;;20.20;73.80;;;;;;5065803;28;20520;-60
2023/12/16 02:37:15;;;;;;;2.80;1.60;;;20.20;74.00;;;;;;5068482;28;20222;-62
2023/12/16 02:39:42;;;;;;;2.03;1.83;;;20.20;73.90;;;;;;5069070;28;20543;-60
2023/12/16 02:42:10;;;;;;;1.50;1.40;;;20.20;74.00;;;;;;5067711;28;20194;-59
2023/12/16 02:44:37;;;;;;;2.53;2.20;;;20.20;73.90;;;;;;5073280;28;20205;-61
2023/12/16 02:47:04;;;;;;;2.10;1.80;;;20.20;73.90;;;;;;5064472;28;20211;-61
2023/12/16 02:49:30;;;;;;;1.80;1.50;;;20.20;73.80;;;;;;5068393;28;20190;-60
2023/12/16 02:51:58;;;;;;;1.60;1.50;;;20.20;73.80;;;;;;5076608;28;20202;-59
2023/12/16 02:54:25;;;;;;;3.63;1.80;;;20.20;73.80;;;;;;5064536;28;20190;-59
2023/12/16 02:56:51;;;;;;;2.70;2.35;;;20.20;73.90;;;;;;5067371;28;20201;-59
2023/12/16 02:59:19;;;;;;;1.83;1.73;;;20.20;73.90;;;;;;5064200;28;20198;-60
2023/12/16 03:01:46;;;;;;;1.77;1.55;;;20.20;73.90;;;;;;5068344;28;20208;-61
2023/12/16 03:04:13;;;;;;;2.05;1.85;;;20.20;73.90;;;;;;5060494;28;20558;-62
2023/12/16 03:06:43;;;;;;;1.98;1.88;;;20.10;73.80;;;;;;5065063;28;20765;-58
2023/12/16 03:09:10;;;;;;;6.20;1.77;;;20.10;73.70;;;;;;5061527;28;20191;-61
2023/12/16 03:11:37;;;;;;;1.92;1.30;;;20.10;73.70;;;;;;5070298;28;20210;-62
2023/12/16 03:14:03;;;;;;;1.90;1.70;;;20.10;73.70;;;;;;5069295;28;20197;-59
2023/12/16 03:16:33;;;;;;;3.00;2.00;;;20.10;73.70;;;;;;5065525;28;20660;-56
2023/12/16 03:19:00;;;;;;;1.58;1.48;;;20.10;73.90;;;;;;5062018;28;20194;-60
2023/12/16 03:21:26;;;;;;;2.30;1.50;;;20.10;73.80;;;;;;5067045;28;20205;-61
2023/12/16 03:23:53;;;;;;;1.70;1.60;;;20.10;73.80;;;;;;5064028;28;20198;-61
2023/12/16 03:26:20;;;;;;;2.00;1.80;;;20.10;73.80;;;;;;5062380;28;20269;-62
2023/12/16 03:28:47;;;;;;;1.73;1.40;;;20.10;73.80;;;;;;5064888;28;20205;-62
2023/12/16 03:31:13;;;;;;;1.77;1.63;;;20.20;73.90;;;;;;5067366;28;20194;-60
2023/12/16 03:33:42;;;;;;;2.03;1.52;;;20.20;74.00;;;;;;5066596;28;20212;-60
2023/12/16 03:36:09;;;;;;;2.60;1.45;;;20.10;73.70;;;;;;5065944;28;20208;-61
2023/12/16 03:38:36;;;;;;;1.77;1.58;;;20.10;73.80;;;;;;5064272;28;20196;-61
2023/12/16 03:41:04;;;;;;;1.95;1.55;;;20.20;74.00;;;;;;5064107;28;20205;-61
2023/12/16 03:43:31;;;;;;;1.70;1.30;;;20.10;73.80;;;;;;5063945;28;20199;-58
2023/12/16 03:45:58;;;;;;;1.45;1.35;;;20.10;73.80;;;;;;5063316;28;20182;-58
2023/12/16 03:48:24;;;;;;;5.13;1.67;;;20.10;73.80;;;;;;5063955;28;20210;-61
2023/12/16 03:50:53;;;;;;;1.88;1.40;;;20.10;73.80;;;;;;5063007;28;20202;-60
2023/12/16 03:53:20;;;;;;;1.60;1.50;;;20.10;73.90;;;;;;5064315;28;20198;-61
2023/12/16 03:55:46;;;;;;;1.98;1.67;;;20.10;73.80;;;;;;5062617;28;20195;-62
2023/12/16 03:58:13;;;;;;;1.55;1.38;;;20.10;73.80;;;;;;5063103;28;20205;-61
2023/12/16 04:00:40;;;;;;;1.60;1.40;;;20.10;73.80;;;;;;5064082;28;20195;-58
2023/12/16 04:03:06;;;;;;;1.70;1.45;;;20.10;73.90;;;;;;5061894;28;20209;-60
2023/12/16 04:05:33;;;;;;;2.00;1.33;;;20.10;73.90;;;;;;5061809;28;20513;-60
2023/12/16 04:08:01;;;;;;;2.13;1.70;;;20.10;73.90;;;;;;5064609;28;20225;-61
2023/12/16 04:10:29;;;;;;;2.05;1.65;;;20.10;73.90;;;;;;5067622;28;20202;-60
2023/12/16 04:12:56;;;;;;;1.88;1.48;;;20.10;73.80;;;;;;5063326;28;20197;-61
2023/12/16 04:15:23;;;;;;;1.60;1.50;;;20.10;74.20;;;;;;5067872;28;20202;-60
2023/12/16 04:17:49;;;;;;;1.58;1.45;;;20.10;73.80;;;;;;5066687;28;20194;-62
2023/12/16 04:20:16;;;;;;;1.85;1.75;;;20.10;73.80;;;;;;5065903;28;20195;-61
2023/12/16 04:22:43;;;;;;;1.88;1.60;;;20.10;73.90;;;;;;5065996;28;20224;-61
2023/12/16 04:25:11;;;;;;;1.70;1.38;;;20.10;73.90;;;;;;5060579;28;20193;-60
2023/12/16 04:27:39;;;;;;;1.30;1.20;;;20.10;73.90;;;;;;5066709;28;20240;-62
2023/12/16 04:30:07;;;;;;;1.92;1.70;;;20.10;73.90;;;;;;5062918;28;20202;-58
2023/12/16 04:32:34;;;;;;;2.33;1.70;;;20.10;73.80;;;;;;5065084;28;20194;-61
2023/12/16 04:35:00;;;;;;;1.58;1.23;;;20.10;73.80;;;;;;5059418;28;20194;-62
2023/12/16 04:37:27;;;;;;;1.98;1.77;;;20.10;73.90;;;;;;5066934;28;20202;-60
2023/12/16 04:39:54;;;;;;;2.03;1.83;;;20.10;73.80;;;;;;5063881;28;20202;-61
2023/12/16 04:42:22;;;;;;;1.83;1.60;;;20.00;73.90;;;;;;5067558;28;20531;-55
2023/12/16 04:44:49;;;;;;;1.75;1.65;;;20.10;73.90;;;;;;5065887;28;20198;-61
2023/12/16 04:47:15;;;;;;;2.00;1.50;;;20.10;73.90;;;;;;5059080;28;20221;-61
2023/12/16 04:49:42;;;;;;;1.50;1.35;;;20.10;73.90;;;;;;5061679;28;20213;-59
2023/12/16 04:52:09;;;;;;;1.40;1.30;;;20.10;74.00;;;;;;5046290;28;20206;-55
2023/12/16 04:54:35;;;;;;;1.67;1.25;;;20.10;73.90;;;;;;5042649;28;20642;-62
2023/12/16 04:57:02;;;;;;;3.08;1.85;;;20.10;73.90;;;;;;5042125;28;20197;-60
2023/12/16 04:59:30;;;;;;;1.60;1.35;;;20.10;73.90;;;;;;5046974;28;20191;-61
2023/12/16 05:01:57;;;;;;;1.83;1.65;;;20.10;73.90;;;;;;5047200;28;20218;-61
2023/12/16 05:04:24;;;;;;;1.92;1.20;;;20.10;73.90;;;;;;5043981;28;20206;-61
2023/12/16 05:06:50;;;;;;;1.75;1.65;;;20.00;73.80;;;;;;5046777;28;20551;-61
2023/12/16 05:09:17;;;;;;;2.05;1.70;;;20.00;73.80;;;;;;5042766;28;20229;-61
2023/12/16 05:11:44;;;;;;;1.33;1.10;;;20.10;73.90;;;;;;5041570;28;20198;-60
2023/12/16 05:14:10;;;;;;;1.55;1.40;;;20.00;73.80;;;;;;4997053;28;20277;-59
2023/12/16 05:16:38;;;;;;;1.55;1.45;;;20.10;74.00;;;;;;5040665;28;20194;-59
2023/12/16 05:19:06;;;;;;;1.50;1.38;;;20.10;74.00;;;;;;5039513;28;20198;-61
2023/12/16 05:21:32;;;;;;;1.95;1.55;;;20.00;73.90;;;;;;4992484;28;20690;-60
2023/12/16 05:23:59;;;;;;;1.70;1.40;;;20.10;74.00;;;;;;5038784;28;20190;-61
2023/12/16 05:26:26;;;;;;;1.42;1.30;;;20.00;73.80;;;;;;5034802;28;20195;-61
2023/12/16 05:28:52;;;;;;;1.55;1.35;;;20.00;74.00;;;;;;5039049;28;20215;-59
2023/12/16 05:31:18;;;;;;;2.23;1.43;;;20.00;74.10;;;;;;5039291;28;20198;-58
2023/12/16 05:33:46;;;;;;;1.48;1.38;;;20.10;74.30;;;;;;5041056;28;20195;-56
2023/12/16 05:36:13;;;;;;;1.60;1.15;;;20.10;74.50;;;;;;5042241;28;20193;-63
2023/12/16 05:38:40;;;;;;;2.05;1.85;;;20.10;74.80;;;;;;5040473;28;20198;-56
2023/12/16 05:41:07;;;;;;;1.50;1.38;;;20.10;74.90;;;;;;5035879;28;20825;-59
2023/12/16 05:43:34;;;;;;;1.70;1.60;;;20.10;75.00;;;;;;5032286;28;20871;-59
2023/12/16 05:46:00;;;;;;;1.30;1.00;;;20.10;75.40;;;;;;5030555;28;20210;-62
2023/12/16 05:48:27;;;;;;;2.13;1.92;;;20.10;75.40;;;;;;5040359;28;20938;-60
2023/12/16 05:50:56;;;;;;;1.33;1.10;;;20.10;75.50;;;;;;5036915;28;20195;-63
2023/12/16 05:53:23;;;;;;;2.40;1.70;;;20.20;75.70;;;;;;5041585;28;20194;-59
2023/12/16 05:55:49;;;;;;;1.35;1.15;;;20.20;75.60;;;;;;5041563;28;20644;-61
2023/12/16 05:58:16;;;;;;;1.60;1.30;;;20.20;75.70;;;;;;5040044;28;20209;-62
2023/12/16 06:00:43;;;;;;;1.73;1.45;;;20.30;75.80;;;;;;5040979;28;20191;-58
2023/12/16 06:03:09;;;;;;;2.63;1.30;;;20.30;75.80;;;;;;5040131;28;20199;-58
2023/12/16 06:05:36;;;;;;;3.45;1.50;;;20.30;75.80;;;;;;5039440;28;20555;-56
2023/12/16 06:08:04;;;;;;;3.78;1.33;;;20.40;75.80;;;;;;5042872;28;20207;-60
2023/12/16 06:10:31;;;;;;;1.80;1.58;;;20.40;75.80;;;;;;5042452;28;20202;-61
2023/12/16 06:12:58;;;;;;;1.75;1.50;;;20.40;75.80;;;;;;5049339;28;21144;-61
2023/12/16 06:15:25;;;;;;;1.83;1.40;;;20.40;75.70;;;;;;5052666;28;20663;-60
2023/12/16 06:17:51;;;;;;;2.15;1.30;;;20.50;75.80;;;;;;5049181;28;20222;-62
2023/12/16 06:20:18;;;;;;;1.50;1.40;;;20.50;75.70;;;;;;5047762;28;20194;-61
2023/12/16 06:22:45;;;;;;;1.60;1.50;;;20.50;75.70;;;;;;5050779;28;20198;-60
2023/12/16 06:25:13;;;;;;;1.50;1.40;;;20.60;75.80;;;;;;5046794;28;20198;-60
2023/12/16 06:27:40;;;;;;;1.40;1.17;;;20.60;75.80;;;;;;5051756;28;20685;-65
2023/12/16 06:30:10;;;;;;;2.20;1.10;;;20.60;75.70;;;;;;5048322;28;20206;-62
2023/12/16 06:32:36;;;;;;;1.73;1.45;;;20.60;75.70;;;;;;5047872;28;20214;-63
2023/12/16 06:35:04;;;;;;;1.20;1.08;;;20.60;75.70;;;;;;5049071;28;20202;-62
2023/12/16 06:37:30;;;;;;;1.30;1.20;;;20.70;75.70;;;;;;5050460;28;20222;-58
2023/12/16 06:39:57;;;;;;;1.35;1.20;;;20.70;75.70;;;;;;5051699;28;20838;-58
2023/12/16 06:42:25;;;;;;;1.50;1.40;;;20.70;75.70;;;;;;5045461;28;20199;-61
2023/12/16 06:44:52;;;;;;;1.30;1.10;;;20.70;75.60;;;;;;5048119;28;20203;-60
2023/12/16 06:47:19;;;;;;;1.95;1.10;;;20.70;75.70;;;;;;5048400;28;20478;-61
2023/12/16 06:49:45;;;;;;;1.30;1.00;;;20.80;75.70;;;;;;5048251;28;20230;-62
2023/12/16 06:52:12;;;;;;;1.48;1.10;;;20.80;75.60;;;;;;5047531;28;20936;-61
2023/12/16 06:54:39;;;;;;;1.52;1.20;;;20.80;75.70;;;;;;5047782;28;20673;-58
2023/12/16 06:57:06;;;;;;;1.83;1.40;;;20.80;75.60;;;;;;5041183;28;20195;-60
2023/12/16 06:59:34;;;;;;;1.60;1.40;;;20.90;75.70;;;;;;5039625;28;20461;-57
2023/12/16 07:02:01;;;;;;;1.70;1.10;;;20.90;75.70;;;;;;5035524;28;20571;-55
2023/12/16 07:04:27;;;;;;;1.10;1.00;;;20.90;75.40;;;;;;5036412;28;20685;-60
2023/12/16 07:06:54;;;;;;;1.50;1.23;;;20.90;75.50;;;;;;5050969;28;20459;-56
2023/12/16 07:09:21;;;;;;;2.60;1.40;;;20.90;75.50;;;;;;5047034;28;20882;-60
2023/12/16 07:11:47;;;;;;;2.37;1.33;;;20.90;75.50;;;;;;5046419;28;20479;-57
2023/12/16 07:14:14;;;;;;;9.50;1.50;;;20.90;75.50;;;;;;5049328;28;20456;-59
2023/12/16 07:16:42;;;;;;;1.93;1.53;;;21.00;75.40;;;;;;5047727;28;20468;-60
2023/12/16 07:19:09;;;;;;;1.30;1.20;;;21.00;75.30;;;;;;5048716;28;20465;-57
2023/12/16 07:21:36;;;;;;;1.20;1.00;;;20.90;75.00;;;;;;5055097;28;21664;-60
2023/12/16 07:24:02;;;;;;;1.40;1.27;;;21.00;75.20;;;;;;5044537;28;20460;-60
2023/12/16 07:26:29;;;;;;;1.30;1.00;;;20.90;74.90;;;;;;5047451;28;20454;-58
2023/12/16 07:28:56;;;;;;;1.90;1.07;;;21.00;74.80;;;;;;5047881;28;20809;-60
2023/12/16 07:31:23;;;;;;;2.67;1.40;;;21.00;74.80;;;;;;5043537;28;20451;-57
2023/12/16 07:33:51;;;;;;;1.70;1.40;;;21.00;74.60;;;;;;5045141;28;20504;-58
2023/12/16 07:36:18;;;;;;;1.20;1.10;;;21.00;74.60;;;;;;5048270;28;20464;-55
2023/12/16 07:38:45;;;;;;;1.30;1.10;;;21.10;74.60;;;;;;5045172;28;20453;-54
2023/12/16 07:41:12;;;;;;;1.60;1.30;;;21.10;74.50;;;;;;5041180;28;20513;-57
2023/12/16 07:43:40;;;;;;;3.87;1.00;;;21.20;74.40;;;;;;5048806;28;20852;-60
2023/12/16 07:46:08;;;;;;;1.80;1.17;;;21.20;74.50;;;;;;5044854;28;20469;-60
2023/12/16 07:48:34;;;;;;;1.33;1.20;;;21.20;74.20;;;;;;5043549;28;20512;-56
2023/12/16 07:51:03;;;;;;;1.30;1.00;;;21.30;74.20;;;;;;5045312;28;20464;-60
2023/12/16 07:53:29;;;;;;;1.40;1.20;;;21.30;74.10;;;;;;5047322;28;20510;-58
2023/12/16 07:55:56;;;;;;;1.50;1.20;;;21.30;74.10;;;;;;5050933;28;20829;-60
2023/12/16 07:58:23;;;;;;;1.40;1.13;;;21.30;73.90;;;;;;5046831;28;20569;-59
2023/12/16 08:00:50;;;;;;;1.80;1.30;;;21.40;73.90;;;;;;5044084;28;20813;-61
2023/12/16 08:03:17;;;;;;;3.83;1.47;;;21.40;73.70;;;;;;5049003;28;20469;-58
2023/12/16 08:05:43;;;;;;;4.10;1.50;;;21.40;74.40;;;;;;5041910;28;20470;-58
2023/12/16 08:08:12;;;;;;;2.90;1.03;;;21.40;73.70;;;;;;5043517;28;20460;-58
2023/12/16 08:10:38;;;;;;;2.63;1.87;;;21.40;73.70;;;;;;5044537;28;20526;-58
2023/12/16 08:13:05;;;;;;;1.17;1.07;;;21.50;73.70;;;;;;5044303;28;20468;-59
2023/12/16 08:15:32;;;;;;;2.20;1.37;;;21.50;73.70;;;;;;5041098;28;21065;-58
2023/12/16 08:17:58;;;;;;;1.30;1.10;;;21.50;73.50;;;;;;5038919;28;20964;-61
2023/12/16 08:20:25;;;;;;;1.20;1.00;;;21.50;73.40;;;;;;5043867;28;20464;-57
2023/12/16 08:22:52;;;;;;;1.20;0.90;;;21.50;73.50;;;;;;5047369;28;20456;-59
2023/12/16 08:25:20;;;;;;;1.27;1.13;;;21.50;73.10;;;;;;5045057;28;20981;-59
2023/12/16 08:27:47;;;;;;;1.53;1.10;;;21.50;73.10;;;;;;5045864;28;20457;-58
2023/12/16 08:30:14;;;;;;;1.20;1.10;;;21.50;73.30;;;;;;5041337;28;21023;-58
2023/12/16 08:32:41;;;;;;;1.57;1.07;;;21.50;73.20;;;;;;5046834;28;20479;-59
2023/12/16 08:35:08;;;;;;;1.50;1.00;;;21.50;72.90;;;;;;5036637;28;20448;-59
2023/12/16 08:37:36;;;;;;;1.10;1.00;;;21.60;73.20;;;;;;5042367;28;20456;-59
2023/12/16 08:40:05;;;;;;;1.70;1.00;;;21.60;73.30;;;;;;5043424;28;20456;-56
2023/12/16 08:42:33;;;;;;;1.40;1.00;;;21.60;73.00;;;;;;5042849;28;20452;-56
2023/12/16 08:45:00;;;;;;;1.43;1.00;;;21.60;73.10;;;;;;5045224;28;20979;-57
2023/12/16 08:47:27;;;;;;;1.60;1.27;;;21.60;72.80;;;;;;5044947;28;20458;-58
2023/12/16 08:49:53;;;;;;;1.40;1.23;;;21.60;73.00;;;;;;5044850;28;20469;-58
2023/12/16 08:52:20;;;;;;;2.83;1.27;;;21.60;72.90;;;;;;5047469;28;22809;-58
2023/12/16 08:54:47;;;;;;;7.40;1.80;;;21.60;72.60;;;;;;5042264;28;20460;-56
2023/12/16 08:57:14;;;;;;;14.13;2.07;;;21.60;72.60;;;;;;5033260;28;20464;-53
2023/12/16 08:59:42;;;;;;;3.07;1.60;;;21.60;72.80;;;;;;5035994;28;20468;-62
2023/12/16 09:02:08;;;;;;;2.40;1.30;;;21.60;72.70;;;;;;5038377;28;20460;-60
2023/12/16 09:04:35;;;;;;;2.07;1.83;;;21.60;72.70;;;;;;5042669;28;20974;-55
2023/12/16 09:07:02;;;;;;;1.90;1.10;;;21.60;72.80;;;;;;5042052;28;20463;-59
2023/12/16 09:09:29;;;;;;;7.00;1.27;;;21.60;73.10;;;;;;5034872;28;20488;-57
2023/12/16 09:11:55;;;;;;;2.23;1.30;;;21.60;73.40;;;;;;5038046;28;20445;-57
2023/12/16 09:14:22;;;;;;;1.80;1.17;;;21.70;73.30;;;;;;5044350;28;20491;-56
2023/12/16 09:16:50;;;;;;;1.60;1.37;;;21.70;73.50;;;;;;5043619;28;20465;-59
2023/12/16 09:19:17;;;;;;;1.13;1.00;;;21.60;73.50;;;;;;5044260;28;20468;-55
2023/12/16 09:21:44;;;;;;;2.23;1.30;;;21.70;73.80;;;;;;5048771;28;20541;-58
2023/12/16 09:24:11;;;;;;;1.10;1.00;;;21.70;73.70;;;;;;5045762;28;20449;-53
2023/12/16 09:26:38;;;;;;;1.73;1.47;;;21.60;73.70;;;;;;5044202;28;20485;-54
2023/12/16 09:29:05;;;;;;;4.10;0.90;;;21.60;73.60;;;;;;5045459;28;20648;-54
2023/12/16 09:31:32;;;;;;;2.57;1.33;;;21.60;74.00;;;;;;5045435;28;20543;-59
2023/12/16 09:34:00;;;;;;;4.00;1.30;;;21.60;74.00;;;;;;5046753;28;20457;-57
2023/12/16 09:36:27;;;;;;;6.20;1.47;;;21.60;74.00;;;;;;5040417;28;20953;-60
2023/12/16 09:38:54;;;;;;;15.03;1.33;;;21.60;72.60;;;;;;5047923;28;20464;-62
2023/12/16 09:41:23;;;;;;;1.33;1.20;;;21.60;73.40;;;;;;5043581;28;20452;-57
2023/12/16 09:43:52;;;;;;;1.50;1.13;;;21.60;73.60;;;;;;5038216;28;21186;-54
2023/12/16 09:46:20;;;;;;;2.07;1.87;;;21.60;73.70;;;;;;5047000;28;20522;-54
2023/12/16 09:48:48;;;;;;;5.53;1.10;;;21.70;74.00;;;;;;5043670;28;20971;-55
2023/12/16 09:51:16;;;;;;;5.13;1.53;;;21.70;73.90;;;;;;5049494;28;20808;-57
2023/12/16 09:53:43;;;;;;;1.50;1.37;;;21.70;73.90;;;;;;5045312;28;20463;-52
2023/12/16 09:56:12;;;;;;;3.00;1.50;;;21.70;73.90;;;;;;5048505;28;20917;-52
2023/12/16 09:58:43;;;;;;;2.00;1.43;;;21.80;74.10;;;;;;5046181;28;20465;-53
2023/12/16 10:01:10;;;;;;;2.60;1.20;;;21.80;74.20;;;;;;5043102;28;20445;-60
2023/12/16 10:03:38;;;;;;;1.73;1.30;;;21.80;74.20;;;;;;5046253;28;20475;-54
2023/12/16 10:06:07;;;;;;;1.90;1.10;;;21.80;74.40;;;;;;5048921;28;20455;-59
2023/12/16 10:08:36;;;;;;;5.63;1.60;;;21.80;74.20;;;;;;5049449;28;20580;-55
2023/12/16 10:11:03;;;;;;;2.73;1.60;;;21.80;71.80;;;;;;5043684;28;20891;-57
2023/12/16 10:13:32;;;;;;;4.10;2.10;;;21.70;70.10;;;;;;5049283;28;20944;-55
2023/12/16 10:16:00;;;;;;;7.80;2.90;;;21.60;68.20;;;;;;5052311;28;20527;-54
2023/12/16 10:18:28;;;;;;;6.43;2.60;;;21.60;66.60;;;;;;5047416;28;20456;-54
2023/12/16 10:20:55;;;;;;;5.97;2.00;;;21.50;64.90;;;;;;5050823;28;20492;-54
2023/12/16 10:23:23;;;;;;;3.73;2.20;;;21.50;64.30;;;;;;5044370;28;20457;-56
2023/12/16 10:25:51;;;;;;;4.47;2.20;;;21.40;64.70;;;;;;5049449;28;21139;-55
2023/12/16 10:28:18;;;;;;;5.60;2.70;;;21.50;65.60;;;;;;5048815;28;20464;-54
2023/12/16 10:30:45;;;;;;;9.23;2.80;;;21.60;65.90;;;;;;5052464;28;20473;-59
2023/12/16 10:33:13;;;;;;;3.60;1.70;;;21.60;66.60;;;;;;5043152;28;20531;-60
2023/12/16 10:35:42;;;;;;;4.50;1.83;;;21.70;66.80;;;;;;5048306;28;20469;-59
2023/12/16 10:38:11;;;;;;;3.37;1.73;;;21.70;67.50;;;;;;5038538;28;20449;-58
2023/12/16 10:40:38;;;;;;;3.67;1.83;;;21.80;67.50;;;;;;5047626;28;20476;-62
2023/12/16 10:43:08;;;;;;;2.30;1.67;;;21.80;67.90;;;;;;5050307;28;20460;-55
2023/12/16 10:45:34;;;;;;;2.80;1.77;;;21.90;68.20;;;;;;5049496;28;20948;-59
2023/12/16 10:48:04;;;;;;;2.93;1.70;;;21.90;68.40;;;;;;5044906;28;20458;-60
2023/12/16 10:50:33;;;;;;;5.53;1.43;;;22.00;68.70;;;;;;5045520;28;20742;-61
2023/12/16 10:53:03;;;;;;;3.47;1.80;;;22.00;69.00;;;;;;5046205;28;20523;-60
2023/12/16 10:55:31;;;;;;;7.30;1.97;;;22.00;69.00;;;;;;5037443;28;20477;-61
2023/12/16 10:58:11;;;;;;;3.43;1.87;;;22.00;69.30;;;;;;5046328;28;20512;-57
2023/12/16 11:00:40;;;;;;;2.83;1.77;;;22.10;69.60;;;;;;5047390;28;20445;-61
2023/12/16 11:03:11;;;;;;;2.60;1.60;;;22.10;69.70;;;;;;5042386;28;20461;-59
2023/12/16 11:05:47;;;;;;;3.43;1.50;;;22.10;69.90;;;;;;5043461;28;20470;-57
2023/12/16 11:08:15;;;;;;;3.10;1.77;;;22.10;70.00;;;;;;5041718;28;20453;-57
2023/12/16 11:10:42;;;;;;;2.43;1.63;;;22.10;70.10;;;;;;5043090;28;20488;-58
2023/12/16 11:13:11;;;;;;;5.97;1.37;;;22.10;70.00;;;;;;5043512;28;20465;-60
2023/12/16 11:15:38;;;;;;;3.20;1.70;;;22.10;70.30;;;;;;5044697;28;21028;-59
2023/12/16 11:18:12;;;;;;;3.07;1.87;;;22.10;70.10;;;;;;5046666;28;20809;-61
2023/12/16 11:20:43;;;;;;;2.43;1.47;;;22.10;70.00;;;;;;5045958;28;20476;-59
2023/12/16 11:23:10;;;;;;;2.67;1.83;;;22.10;70.20;;;;;;5047181;28;20467;-60
2023/12/16 11:25:37;;;;;;;1.30;1.00;;;22.10;70.10;;;;;;5041120;28;20526;-59
2023/12/16 11:28:06;;;;;;;1.67;1.20;;;22.10;70.20;;;;;;5049268;28;20526;-56
2023/12/16 11:30:34;;;;;;;2.17;1.57;;;22.10;70.10;;;;;;5046857;28;20481;-56
2023/12/16 11:33:01;;;;;;;3.47;1.20;;;22.10;70.40;;;;;;5049703;28;21094;-59
2023/12/16 11:35:47;;;;;;;2.80;1.77;;;22.10;70.40;;;;;;5039290;28;20556;-58
2023/12/16 11:38:37;;;;;;;4.00;1.90;;;22.20;70.30;;;;;;5048338;28;20457;-56
2023/12/16 11:41:04;;;;;;;3.23;1.27;;;22.20;70.30;;;;;;5041390;28;21454;-56
2023/12/16 11:43:47;;;;;;;1.70;1.60;;;22.20;70.40;;;;;;5047578;28;20465;-57
2023/12/16 11:46:33;;;;;;;1.77;1.20;;;22.20;70.40;;;;;;5039476;28;21322;-57
2023/12/16 11:49:02;;;;;;;1.50;1.20;;;22.20;70.60;;;;;;5047202;28;20453;-60
2023/12/16 11:51:30;;;;;;;2.47;1.70;;;22.20;70.80;;;;;;5045646;28;20463;-56
2023/12/16 11:53:58;;;;;;;2.17;1.30;;;22.10;70.40;;;;;;5047134;28;20468;-59
2023/12/16 11:56:25;;;;;;;1.87;1.50;;;22.10;70.40;;;;;;5041531;28;20832;-59
2023/12/16 11:58:57;;;;;;;2.10;1.67;;;22.20;71.00;;;;;;5041338;28;20472;-60
2023/12/16 12:01:25;;;;;;;1.50;1.13;;;22.10;70.60;;;;;;5044839;28;20547;-56
2023/12/16 12:03:53;;;;;;;2.30;1.20;;;22.10;70.60;;;;;;5046621;28;20507;-58
2023/12/16 12:06:20;;;;;;;1.70;1.10;;;22.10;71.40;;;;;;5044118;28;21434;-57
2023/12/16 12:08:47;;;;;;;1.50;1.10;;;22.10;70.90;;;;;;5047061;28;20458;-56
2023/12/16 12:11:16;;;;;;;4.57;1.67;;;22.10;70.90;;;;;;5044400;28;20469;-58
2023/12/16 12:13:43;;;;;;;1.87;1.30;;;22.10;70.70;;;;;;5045065;28;20464;-57
2023/12/16 12:16:12;;;;;;;3.33;1.60;;;22.10;71.80;;;;;;5046806;28;20456;-57
2023/12/16 12:18:39;;;;;;;2.17;1.10;;;22.10;71.20;;;;;;5046786;28;20508;-58
2023/12/16 12:21:09;;;;;;;2.13;1.10;;;22.10;71.10;;;;;;5044846;28;21031;-60
2023/12/16 12:23:38;;;;;;;2.57;1.83;;;22.10;71.20;;;;;;5043656;28;20571;-56
2023/12/16 12:26:05;;;;;;;1.17;0.97;;;22.10;71.40;;;;;;5038942;28;20814;-57
2023/12/16 12:28:33;;;;;;;2.33;1.57;;;22.10;71.40;;;;;;5041416;28;20458;-58
2023/12/16 12:31:04;;;;;;;2.13;1.10;;;22.00;71.30;;;;;;5043991;28;20481;-58
2023/12/16 12:33:32;;;;;;;1.40;1.20;;;22.10;71.50;;;;;;5044330;28;20465;-56
2023/12/16 12:35:59;;;;;;;2.30;1.60;;;22.10;71.50;;;;;;5050212;28;20457;-60
2023/12/16 12:38:29;;;;;;;2.20;1.60;;;22.10;71.50;;;;;;5049532;28;21265;-57
2023/12/16 12:41:00;;;;;;;2.07;1.03;;;22.10;71.20;;;;;;5045601;28;20499;-56
2023/12/16 12:43:30;;;;;;;1.93;1.30;;;22.10;71.30;;;;;;5040895;28;20515;-59
2023/12/16 12:46:08;;;;;;;2.50;1.20;;;22.10;71.50;;;;;;5050992;28;20453;-60
2023/12/16 12:48:36;;;;;;;1.40;1.20;;;22.10;71.50;;;;;;5042818;28;20580;-60